Time;durP1;ratioP1;P1;durP2;ratioP2;P2;SDS_P1;SDS_P2;PMS_P1;PMS_P2;Temp;Humidity;BMP_temperature;BMP_pressure;BME280_temperature;BME280_humidity;BME280_pressure;Samples;Min_cycle;Max_cycle;Signal;HPM_P1;HPM_P2
2023/05/04 00:00:19;;;;;;;;;;;22.10;55.50;;;;;;1609076;73;762;-67
2023/05/04 00:02:21;;;;;;;;;;;22.10;55.70;;;;;;1609163;72;1233;-65
2023/05/04 00:04:23;;;;;;;;;;;22.00;55.70;;;;;;1603786;72;775;-65
2023/05/04 00:06:25;;;;;;;;;;;22.00;55.60;;;;;;1604556;72;755;-66
2023/05/04 00:08:27;;;;;;;;;;;22.10;55.70;;;;;;1606103;73;761;-66
2023/05/04 00:10:29;;;;;;;;;;;22.10;55.70;;;;;;1607097;73;736;-67
2023/05/04 00:12:31;;;;;;;;;;;22.20;55.60;;;;;;1607616;73;1960;-66
2023/05/04 00:14:32;;;;;;;;;;;22.20;55.60;;;;;;1602640;72;739;-66
2023/05/04 00:16:35;;;;;;;;;;;22.20;55.50;;;;;;1586168;72;804;-67
2023/05/04 00:18:37;;;;;;;;;;;22.20;55.50;;;;;;1603719;72;772;-66
2023/05/04 00:20:39;;;;;;;;;;;22.20;55.50;;;;;;1607046;72;814;-66
2023/05/04 00:22:41;;;;;;;;;;;22.20;55.50;;;;;;1604316;73;1249;-66
2023/05/04 00:24:43;;;;;;;;;;;22.20;55.50;;;;;;1602778;72;820;-67
2023/05/04 00:26:45;;;;;;;;;;;22.10;55.50;;;;;;1607956;73;807;-65
2023/05/04 00:28:47;;;;;;;;;;;22.20;55.50;;;;;;1606992;72;795;-66
2023/05/04 00:30:49;;;;;;;;;;;22.20;55.50;;;;;;1608692;72;763;-66
2023/05/04 00:32:51;;;;;;;;;;;22.20;55.50;;;;;;1650588;70;1960;-64
2023/05/04 00:34:52;;;;;;;;;;;22.20;55.50;;;;;;1646913;70;650;-65
2023/05/04 00:36:55;;;;;;;;;;;22.10;55.50;;;;;;1645783;71;797;-65
2023/05/04 00:38:57;;;;;;;;;;;22.10;55.50;;;;;;1644464;70;778;-64
2023/05/04 00:40:59;;;;;;;;;;;22.20;55.50;;;;;;1639240;71;1391;-65
2023/05/04 00:43:00;;;;;;;;;;;22.20;55.50;;;;;;1649419;71;1147;-65
2023/05/04 00:45:02;;;;;;;;;;;22.20;55.50;;;;;;1636938;70;764;-65
2023/05/04 00:47:04;;;;;;;;;;;22.20;55.50;;;;;;1641683;71;770;-65
2023/05/04 00:49:06;;;;;;;;;;;22.20;55.50;;;;;;1640752;71;743;-65
2023/05/04 00:51:08;;;;;;;;;;;22.10;55.60;;;;;;1652022;70;732;-65
2023/05/04 00:53:10;;;;;;;;;;;22.10;55.70;;;;;;1662587;70;1921;-65
2023/05/04 00:55:13;;;;;;;;;;;22.10;55.70;;;;;;1638956;70;745;-67
2023/05/04 00:57:15;;;;;;;;;;;22.10;55.70;;;;;;1648042;70;664;-66
2023/05/04 00:59:17;;;;;;;;;;;22.10;55.80;;;;;;1647991;71;677;-66
2023/05/04 01:01:18;;;;;;;;;;;22.10;55.60;;;;;;1652376;70;786;-66
2023/05/04 01:03:20;;;;;;;;;;;22.10;55.50;;;;;;1642658;71;1098;-64
2023/05/04 01:05:23;;;;;;;;;;;22.10;55.40;;;;;;1637838;70;804;-68
2023/05/04 01:07:38;;;;;;;;;;;22.20;55.20;;;;;;1645096;70;735;-65
2023/05/04 01:09:45;;;;;;;;;;;22.20;55.10;;;;;;1649266;70;744;-66
2023/05/04 01:11:57;;;;;;;;;;;22.20;55.20;;;;;;1649750;71;1144;-66
2023/05/04 01:13:59;;;;;;;;;;;22.20;55.30;;;;;;1649881;71;1936;-67
2023/05/04 01:16:02;;;;;;;;;;;22.20;55.50;;;;;;1623178;72;660;-67
2023/05/04 01:18:04;;;;;;;;;;;22.10;55.80;;;;;;1631596;71;771;-66
2023/05/04 01:20:06;;;;;;;;;;;22.00;56.00;;;;;;1627146;73;740;-67
2023/05/04 01:22:08;;;;;;;;;;;22.00;56.00;;;;;;1624456;71;1164;-66
2023/05/04 01:24:10;;;;;;;;;;;22.00;56.10;;;;;;1647068;71;773;-68
2023/05/04 01:26:30;;;;;;;;;;;22.00;56.30;;;;;;1633859;72;801;-66
2023/05/04 01:28:39;;;;;;;;;;;21.90;56.40;;;;;;1626867;71;743;-67
2023/05/04 01:30:45;;;;;;;;;;;21.90;56.40;;;;;;1646417;71;736;-67
2023/05/04 01:32:46;;;;;;;;;;;21.90;56.50;;;;;;1655114;71;1273;-67
2023/05/04 01:34:48;;;;;;;;;;;21.90;56.40;;;;;;1625458;71;1937;-69
2023/05/04 01:36:50;;;;;;;;;;;22.20;56.50;;;;;;1630265;71;1485;-68
2023/05/04 01:38:57;;;;;;;;;;;21.90;56.10;;;;;;1641451;71;721;-68
2023/05/04 01:40:59;;;;;;;;;;;22.00;55.80;;;;;;1641225;71;664;-67
2023/05/04 01:43:00;;;;;;;;;;;22.10;55.70;;;;;;1637484;71;1144;-67
2023/05/04 01:45:03;;;;;;;;;;;22.00;55.90;;;;;;1627673;71;800;-68
2023/05/04 01:47:05;;;;;;;;;;;22.00;55.70;;;;;;1642066;71;753;-67
2023/05/04 01:49:06;;;;;;;;;;;22.00;55.70;;;;;;1645923;71;745;-67
2023/05/04 01:51:08;;;;;;;;;;;22.10;55.70;;;;;;1632609;71;735;-68
2023/05/04 01:53:10;;;;;;;;;;;22.00;55.70;;;;;;1639269;71;2029;-68
2023/05/04 01:55:12;;;;;;;;;;;22.00;55.50;;;;;;1621907;71;742;-69
2023/05/04 01:57:14;;;;;;;;;;;22.00;55.50;;;;;;1636581;71;743;-68
2023/05/04 01:59:16;;;;;;;;;;;22.10;55.50;;;;;;1622860;71;733;-69
2023/05/04 02:01:18;;;;;;;;;;;22.10;55.50;;;;;;1635986;71;747;-69
2023/05/04 02:03:20;;;;;;;;;;;22.10;55.50;;;;;;1639775;71;1146;-69
2023/05/04 02:05:22;;;;;;;;;;;22.10;55.50;;;;;;1638756;72;761;-69
2023/05/04 02:07:23;;;;;;;;;;;22.10;55.30;;;;;;1636775;71;752;-69
2023/05/04 02:09:25;;;;;;;;;;;22.10;55.20;;;;;;1648049;71;773;-69
2023/05/04 02:11:27;;;;;;;;;;;22.10;55.20;;;;;;1639813;71;745;-67
2023/05/04 02:13:30;;;;;;;;;;;22.10;55.20;;;;;;1634610;71;1928;-67
2023/05/04 02:15:32;;;;;;;;;;;22.10;55.30;;;;;;1627565;71;757;-67
2023/05/04 02:17:33;;;;;;;;;;;22.10;55.20;;;;;;1641535;71;741;-69
2023/05/04 02:19:35;;;;;;;;;;;22.20;55.20;;;;;;1641809;71;670;-67
2023/05/04 02:21:37;;;;;;;;;;;22.10;55.20;;;;;;1630491;71;788;-69
2023/05/04 02:23:39;;;;;;;;;;;22.10;55.20;;;;;;1639242;71;1221;-69
2023/05/04 02:25:41;;;;;;;;;;;22.10;55.20;;;;;;1630136;71;792;-68
2023/05/04 02:27:43;;;;;;;;;;;22.10;55.40;;;;;;1647540;71;757;-69
2023/05/04 02:29:45;;;;;;;;;;;22.20;55.10;;;;;;1630894;71;743;-66
2023/05/04 02:31:47;;;;;;;;;;;22.10;55.10;;;;;;1640767;71;1172;-67
2023/05/04 02:33:49;;;;;;;;;;;22.20;55.40;;;;;;1638414;71;1945;-68
2023/05/04 02:35:51;;;;;;;;;;;22.10;55.20;;;;;;1643223;71;749;-68
2023/05/04 02:37:53;;;;;;;;;;;22.20;55.40;;;;;;1631475;71;713;-68
2023/05/04 02:39:55;;;;;;;;;;;22.20;55.50;;;;;;1651970;71;795;-67
2023/05/04 02:41:57;;;;;;;;;;;22.10;55.50;;;;;;1629108;71;1154;-67
2023/05/04 02:43:58;;;;;;;;;;;22.10;55.50;;;;;;1634110;72;800;-68
2023/05/04 02:46:00;;;;;;;;;;;22.10;55.50;;;;;;1636058;71;759;-69
2023/05/04 02:48:02;;;;;;;;;;;22.10;55.20;;;;;;1633926;71;797;-69
2023/05/04 02:50:04;;;;;;;;;;;22.10;55.40;;;;;;1637653;71;738;-69
2023/05/04 02:52:06;;;;;;;;;;;22.10;55.50;;;;;;1633750;71;1168;-69
2023/05/04 02:54:08;;;;;;;;;;;22.10;55.30;;;;;;1640574;71;1934;-68
2023/05/04 02:56:10;;;;;;;;;;;22.20;55.50;;;;;;1619870;72;797;-68
2023/05/04 02:58:12;;;;;;;;;;;22.10;55.40;;;;;;1634117;71;790;-68
2023/05/04 03:00:14;;;;;;;;;;;22.10;55.50;;;;;;1643033;71;790;-68
2023/05/04 03:02:16;;;;;;;;;;;22.20;55.40;;;;;;1655192;71;1130;-69
2023/05/04 03:04:18;;;;;;;;;;;22.10;55.60;;;;;;1639249;71;801;-70
2023/05/04 03:06:19;;;;;;;;;;;22.10;55.50;;;;;;1646332;71;767;-68
2023/05/04 03:08:21;;;;;;;;;;;22.20;55.50;;;;;;1640789;71;769;-68
2023/05/04 03:10:23;;;;;;;;;;;22.10;55.30;;;;;;1639861;71;724;-70
2023/05/04 03:12:25;;;;;;;;;;;22.10;55.50;;;;;;1632339;71;1172;-68
2023/05/04 03:14:27;;;;;;;;;;;22.20;55.30;;;;;;1630465;71;1927;-70
2023/05/04 03:16:29;;;;;;;;;;;22.20;55.40;;;;;;1627350;71;787;-70
2023/05/04 03:18:31;;;;;;;;;;;22.20;55.20;;;;;;1633241;72;751;-70
2023/05/04 03:20:33;;;;;;;;;;;22.20;55.20;;;;;;1635992;71;768;-70
2023/05/04 03:22:35;;;;;;;;;;;22.20;55.10;;;;;;1632922;71;1182;-69
2023/05/04 03:24:36;;;;;;;;;;;22.20;55.00;;;;;;1644187;71;858;-67
2023/05/04 03:26:38;;;;;;;;;;;22.20;55.00;;;;;;1630168;71;803;-67
2023/05/04 03:28:40;;;;;;;;;;;22.30;55.00;;;;;;1630782;71;759;-67
2023/05/04 03:30:42;;;;;;;;;;;22.30;55.00;;;;;;1636345;71;1409;-67
2023/05/04 03:32:44;;;;;;;;;;;22.30;54.80;;;;;;1640729;71;1219;-68
2023/05/04 03:34:46;;;;;;;;;;;22.40;54.80;;;;;;1639750;71;1944;-69
2023/05/04 03:36:48;;;;;;;;;;;22.30;54.80;;;;;;1630319;71;761;-68
2023/05/04 03:38:50;;;;;;;;;;;22.30;54.80;;;;;;1626072;71;802;-69
2023/05/04 03:40:52;;;;;;;;;;;22.30;54.90;;;;;;1639920;71;758;-69
2023/05/04 03:42:54;;;;;;;;;;;22.30;54.90;;;;;;1639757;71;1240;-69
2023/05/04 03:44:55;;;;;;;;;;;22.30;54.80;;;;;;1634876;71;713;-68
2023/05/04 03:46:57;;;;;;;;;;;22.30;54.80;;;;;;1621795;71;619;-69
2023/05/04 03:48:59;;;;;;;;;;;22.40;54.70;;;;;;1638630;71;674;-69
2023/05/04 03:51:01;;;;;;;;;;;22.30;54.70;;;;;;1642138;71;714;-68
2023/05/04 03:53:03;;;;;;;;;;;22.30;54.70;;;;;;1643922;71;1174;-69
2023/05/04 03:55:05;;;;;;;;;;;22.30;54.70;;;;;;1623163;71;1932;-69
2023/05/04 03:57:07;;;;;;;;;;;22.30;55.00;;;;;;1623616;71;752;-69
2023/05/04 03:59:09;;;;;;;;;;;22.20;55.00;;;;;;1628594;71;741;-69
2023/05/04 04:01:11;;;;;;;;;;;22.20;55.00;;;;;;1645832;71;723;-69
2023/05/04 04:03:13;;;;;;;;;;;22.20;55.00;;;;;;1637906;71;1112;-68
2023/05/04 04:05:15;;;;;;;;;;;22.20;55.10;;;;;;1627245;72;757;-69
2023/05/04 04:07:17;;;;;;;;;;;22.20;55.00;;;;;;1639261;71;733;-71
2023/05/04 04:09:19;;;;;;;;;;;22.20;55.00;;;;;;1629581;71;667;-68
2023/05/04 04:11:20;;;;;;;;;;;22.20;55.00;;;;;;1634113;71;798;-68
2023/05/04 04:13:22;;;;;;;;;;;22.20;55.00;;;;;;1591246;71;2127;-70
2023/05/04 04:15:24;;;;;;;;;;;22.20;55.00;;;;;;1565297;74;1942;-70
2023/05/04 04:17:26;;;;;;;;;;;22.20;55.10;;;;;;1577848;74;744;-67
2023/05/04 04:19:28;;;;;;;;;;;22.20;55.10;;;;;;1569539;74;681;-68
2023/05/04 04:21:30;;;;;;;;;;;22.20;55.00;;;;;;1570290;74;752;-71
2023/05/04 04:23:32;;;;;;;;;;;22.20;55.10;;;;;;1585407;73;1283;-70
2023/05/04 04:25:34;;;;;;;;;;;22.20;55.10;;;;;;1590456;73;1428;-69
2023/05/04 04:27:36;;;;;;;;;;;22.20;55.00;;;;;;1592152;73;773;-70
2023/05/04 04:29:38;;;;;;;;;;;22.10;55.40;;;;;;1582582;73;812;-69
2023/05/04 04:31:40;;;;;;;;;;;22.10;55.50;;;;;;1589936;73;751;-69
2023/05/04 04:33:42;;;;;;;;;;;22.10;55.50;;;;;;1598805;73;1226;-70
2023/05/04 04:35:44;;;;;;;;;;;22.10;55.70;;;;;;1592903;73;1934;-70
2023/05/04 04:37:46;;;;;;;;;;;22.10;55.80;;;;;;1590991;73;762;-70
2023/05/04 04:39:48;;;;;;;;;;;22.10;56.20;;;;;;1588062;73;734;-68
2023/05/04 04:41:50;;;;;;;;;;;22.10;56.30;;;;;;1594575;73;640;-68
2023/05/04 04:43:52;;;;;;;;;;;22.00;56.40;;;;;;1598153;73;1174;-69
2023/05/04 04:45:53;;;;;;;;;;;22.00;56.10;;;;;;1583723;73;795;-70
2023/05/04 04:47:56;;;;;;;;;;;22.10;56.30;;;;;;1596219;73;764;-69
2023/05/04 04:49:58;;;;;;;;;;;22.10;56.10;;;;;;1590338;73;811;-68
2023/05/04 04:52:01;;;;;;;;;;;22.10;55.90;;;;;;1594997;73;668;-68
2023/05/04 04:54:02;;;;;;;;;;;22.20;55.80;;;;;;1579614;74;781;-67
2023/05/04 04:56:06;;;;;;;;;;;22.10;56.40;;;;;;1596848;73;1932;-67
2023/05/04 04:58:08;;;;;;;;;;;22.10;56.10;;;;;;1587885;73;764;-67
2023/05/04 05:00:10;;;;;;;;;;;22.10;56.10;;;;;;1599159;73;753;-67
2023/05/04 05:02:12;;;;;;;;;;;22.10;55.90;;;;;;1583449;73;1181;-67
2023/05/04 05:04:14;;;;;;;;;;;22.10;55.70;;;;;;1597761;73;786;-67
2023/05/04 05:06:16;;;;;;;;;;;22.10;55.50;;;;;;1599089;73;784;-67
2023/05/04 05:08:18;;;;;;;;;;;22.10;55.40;;;;;;1598664;73;783;-66
2023/05/04 05:10:23;;;;;;;;;;;22.10;55.20;;;;;;1588834;74;801;-66
2023/05/04 05:12:25;;;;;;;;;;;22.10;55.20;;;;;;1582323;73;1171;-67
2023/05/04 05:14:27;;;;;;;;;;;22.10;55.10;;;;;;1594171;73;1933;-67
2023/05/04 05:16:29;;;;;;;;;;;22.20;55.00;;;;;;1597764;73;761;-71
2023/05/04 05:18:31;;;;;;;;;;;22.20;54.90;;;;;;1599581;73;742;-67
2023/05/04 05:20:33;;;;;;;;;;;22.10;55.50;;;;;;1588263;73;619;-67
2023/05/04 05:22:36;;;;;;;;;;;22.20;56.20;;;;;;1588581;73;1454;-67
2023/05/04 05:24:38;;;;;;;;;;;22.10;56.50;;;;;;1583270;73;744;-67
2023/05/04 05:26:40;;;;;;;;;;;22.10;56.40;;;;;;1594028;73;764;-67
2023/05/04 05:28:42;;;;;;;;;;;22.00;56.30;;;;;;1579351;73;764;-68
2023/05/04 05:30:44;;;;;;;;;;;22.10;56.30;;;;;;1590711;73;690;-67
2023/05/04 05:32:46;;;;;;;;;;;22.10;56.30;;;;;;1583546;73;1226;-69
2023/05/04 05:34:48;;;;;;;;;;;22.10;56.20;;;;;;1599205;74;1917;-70
2023/05/04 05:36:49;;;;;;;;;;;22.10;56.30;;;;;;1592676;74;754;-64
2023/05/04 05:38:51;;;;;;;;;;;22.10;56.80;;;;;;1595853;73;770;-66
2023/05/04 05:40:53;;;;;;;;;;;22.10;57.50;;;;;;1599691;73;784;-66
2023/05/04 05:42:55;;;;;;;;;;;22.20;58.20;;;;;;1599474;73;1181;-65
2023/05/04 05:44:57;;;;;;;;;;;22.40;59.10;;;;;;1599595;73;753;-64
2023/05/04 05:46:59;;;;;;;;;;;22.50;59.30;;;;;;1586630;73;755;-66
2023/05/04 05:49:01;;;;;;;;;;;22.70;59.00;;;;;;1593486;73;774;-67
2023/05/04 05:51:03;;;;;;;;;;;22.90;58.10;;;;;;1597870;73;783;-65
2023/05/04 05:53:05;;;;;;;;;;;23.00;57.50;;;;;;1586375;73;1168;-66
2023/05/04 05:55:07;;;;;;;;;;;23.20;56.10;;;;;;1592783;73;1929;-67
2023/05/04 05:57:09;;;;;;;;;;;23.30;55.20;;;;;;1597358;73;742;-66
2023/05/04 05:59:11;;;;;;;;;;;23.30;55.00;;;;;;1580833;73;741;-63
2023/05/04 06:01:13;;;;;;;;;;;23.30;54.70;;;;;;1590392;73;822;-66
2023/05/04 06:03:15;;;;;;;;;;;23.30;54.20;;;;;;1600026;73;1194;-66
2023/05/04 06:05:17;;;;;;;;;;;23.30;54.10;;;;;;1602099;73;760;-65
2023/05/04 06:07:20;;;;;;;;;;;23.30;53.70;;;;;;1595200;73;769;-66
2023/05/04 06:09:22;;;;;;;;;;;23.30;53.50;;;;;;1598094;73;746;-67
2023/05/04 06:11:24;;;;;;;;;;;23.30;53.60;;;;;;1593123;73;745;-67
2023/05/04 06:13:26;;;;;;;;;;;23.30;53.40;;;;;;1591809;73;1169;-66
2023/05/04 06:15:29;;;;;;;;;;;23.30;53.40;;;;;;1592999;73;1923;-66
2023/05/04 06:17:30;;;;;;;;;;;23.30;53.30;;;;;;1599620;73;660;-65
2023/05/04 06:19:37;;;;;;;;;;;23.20;53.30;;;;;;1592296;73;2010;-66
2023/05/04 06:21:39;;;;;;;;;;;23.20;53.30;;;;;;1601436;73;1444;-66
2023/05/04 06:23:41;;;;;;;;;;;23.20;53.20;;;;;;1592370;73;1289;-66
2023/05/04 06:25:43;;;;;;;;;;;23.20;53.20;;;;;;1581200;73;745;-66
2023/05/04 06:27:45;;;;;;;;;;;23.20;53.10;;;;;;1592186;73;805;-65
2023/05/04 06:29:47;;;;;;;;;;;23.30;53.10;;;;;;1584355;73;761;-66
2023/05/04 06:31:49;;;;;;;;;;;23.20;53.00;;;;;;1591048;73;790;-66
2023/05/04 06:33:51;;;;;;;;;;;23.20;52.90;;;;;;1584061;73;1241;-64
2023/05/04 06:35:53;;;;;;;;;;;23.20;52.80;;;;;;1594042;74;1933;-66
2023/05/04 06:37:55;;;;;;;;;;;23.30;52.90;;;;;;1587759;73;1154;-66
2023/05/04 06:39:57;;;;;;;;;;;23.30;52.80;;;;;;1590458;73;804;-66
2023/05/04 06:41:59;;;;;;;;;;;23.30;52.70;;;;;;1585728;73;765;-67
2023/05/04 06:44:01;;;;;;;;;;;23.40;52.40;;;;;;1595565;73;775;-66
2023/05/04 06:46:03;;;;;;;;;;;23.40;52.30;;;;;;1598183;73;781;-66
2023/05/04 06:48:05;;;;;;;;;;;23.60;52.20;;;;;;1592747;73;745;-66
2023/05/04 06:50:10;;;;;;;;;;;23.50;52.10;;;;;;1598708;73;765;-65
2023/05/04 06:52:13;;;;;;;;;;;23.60;51.80;;;;;;1598660;73;1175;-66
2023/05/04 06:54:15;;;;;;;;;;;23.60;51.70;;;;;;1588083;73;789;-66
2023/05/04 06:56:17;;;;;;;;;;;23.60;51.60;;;;;;1596974;73;1923;-66
2023/05/04 06:58:20;;;;;;;;;;;23.70;51.80;;;;;;1581361;73;695;-66
2023/05/04 07:00:22;;;;;;;;;;;23.70;51.50;;;;;;1597126;74;744;-66
2023/05/04 07:02:24;;;;;;;;;;;23.70;51.40;;;;;;1600142;73;1178;-64
2023/05/04 07:04:26;;;;;;;;;;;23.80;51.40;;;;;;1598814;73;691;-66
2023/05/04 07:06:28;;;;;;;;;;;23.90;51.30;;;;;;1590960;73;782;-66
2023/05/04 07:08:30;;;;;;;;;;;23.90;51.30;;;;;;1589019;73;730;-66
2023/05/04 07:10:32;;;;;;;;;;;23.90;51.10;;;;;;1589346;73;754;-66
2023/05/04 07:12:34;;;;;;;;;;;23.90;51.10;;;;;;1609467;73;1178;-66
2023/05/04 07:14:36;;;;;;;;;;;24.00;50.90;;;;;;1579000;73;1397;-63
2023/05/04 07:16:38;;;;;;;;;;;24.00;50.80;;;;;;1592038;73;1941;-66
2023/05/04 07:18:40;;;;;;;;;;;24.00;50.80;;;;;;1591473;73;733;-66
2023/05/04 07:20:42;;;;;;;;;;;24.00;50.60;;;;;;1589471;74;753;-66
2023/05/04 07:22:44;;;;;;;;;;;24.00;50.50;;;;;;1589992;73;1196;-66
2023/05/04 07:24:45;;;;;;;;;;;23.90;50.50;;;;;;1588941;74;810;-66
2023/05/04 07:26:47;;;;;;;;;;;23.90;50.60;;;;;;1584490;73;731;-65
2023/05/04 07:28:49;;;;;;;;;;;24.00;50.50;;;;;;1582498;74;781;-66
2023/05/04 07:30:51;;;;;;;;;;;24.00;50.40;;;;;;1597568;73;750;-67
2023/05/04 07:32:53;;;;;;;;;;;23.90;50.50;;;;;;1600070;73;1271;-66
2023/05/04 07:34:55;;;;;;;;;;;23.90;50.50;;;;;;1595708;74;797;-66
2023/05/04 07:36:57;;;;;;;;;;;23.90;50.50;;;;;;1581851;73;1949;-64
2023/05/04 07:38:59;;;;;;;;;;;23.90;50.50;;;;;;1598991;73;792;-66
2023/05/04 07:41:00;;;;;;;;;;;23.90;50.60;;;;;;1596060;73;778;-66
2023/05/04 07:43:02;;;;;;;;;;;23.70;50.70;;;;;;1589079;73;1453;-66
2023/05/04 07:45:05;;;;;;;;;;;23.70;50.70;;;;;;1589311;73;759;-66
2023/05/04 07:47:07;;;;;;;;;;;23.70;50.70;;;;;;1586172;73;911;-66
2023/05/04 07:49:08;;;;;;;;;;;23.70;50.70;;;;;;1594320;73;757;-67
2023/05/04 07:51:13;;;;;;;;;;;23.70;50.70;;;;;;1577913;73;750;-65
2023/05/04 07:53:15;;;;;;;;;;;23.70;50.80;;;;;;1588311;73;1193;-66
2023/05/04 07:55:17;;;;;;;;;;;23.70;50.70;;;;;;1590830;73;733;-67
2023/05/04 07:57:19;;;;;;;;;;;23.70;50.70;;;;;;1588299;74;795;-66
2023/05/04 07:59:22;;;;;;;;;;;23.70;50.70;;;;;;1595130;73;732;-66
2023/05/04 08:01:24;;;;;;;;;;;23.70;50.70;;;;;;1597852;73;738;-67
2023/05/04 08:03:25;;;;;;;;;;;23.70;50.70;;;;;;1599068;73;1197;-66
2023/05/04 08:05:27;;;;;;;;;;;23.60;50.70;;;;;;1592632;73;735;-66
2023/05/04 08:07:29;;;;;;;;;;;23.70;50.90;;;;;;1596311;73;778;-67
2023/05/04 08:09:31;;;;;;;;;;;23.70;50.80;;;;;;1584258;73;669;-66
2023/05/04 08:11:33;;;;;;;;;;;23.70;50.80;;;;;;1589350;73;1418;-65
2023/05/04 08:13:35;;;;;;;;;;;23.60;50.70;;;;;;1589341;73;1152;-66
2023/05/04 08:15:37;;;;;;;;;;;23.60;50.70;;;;;;1586936;73;1941;-65
2023/05/04 08:17:39;;;;;;;;;;;23.70;50.80;;;;;;1589993;73;778;-66
2023/05/04 08:19:41;;;;;;;;;;;23.70;50.80;;;;;;1589939;73;756;-66
2023/05/04 08:21:43;;;;;;;;;;;23.60;50.70;;;;;;1594957;73;755;-66
2023/05/04 08:23:45;;;;;;;;;;;23.70;50.90;;;;;;1592007;73;1205;-66
2023/05/04 08:25:47;;;;;;;;;;;23.70;50.90;;;;;;1599775;74;764;-65
2023/05/04 08:27:48;;;;;;;;;;;23.70;50.80;;;;;;1579112;74;751;-67
2023/05/04 08:29:51;;;;;;;;;;;23.60;50.70;;;;;;1595004;73;763;-66
2023/05/04 08:31:54;;;;;;;;;;;23.60;50.70;;;;;;1592012;73;606;-66
2023/05/04 08:33:56;;;;;;;;;;;23.60;50.80;;;;;;1593982;73;1201;-66
2023/05/04 08:35:57;;;;;;;;;;;23.60;50.80;;;;;;1599760;73;1921;-65
2023/05/04 08:38:00;;;;;;;;;;;23.60;50.70;;;;;;1587452;73;744;-66
2023/05/04 08:40:02;;;;;;;;;;;23.60;50.70;;;;;;1593108;73;760;-66
2023/05/04 08:42:04;;;;;;;;;;;23.60;50.70;;;;;;1606670;73;1187;-66
2023/05/04 08:44:06;;;;;;;;;;;23.60;50.70;;;;;;1596292;73;776;-66
2023/05/04 08:46:08;;;;;;;;;;;23.60;50.60;;;;;;1594264;73;742;-66
2023/05/04 08:48:10;;;;;;;;;;;23.70;50.70;;;;;;1589753;73;713;-66
2023/05/04 08:50:12;;;;;;;;;;;23.60;50.60;;;;;;1594169;73;659;-66
2023/05/04 08:52:14;;;;;;;;;;;23.60;50.60;;;;;;1595194;73;1152;-66
2023/05/04 08:54:16;;;;;;;;;;;23.60;50.50;;;;;;1597702;73;785;-66
2023/05/04 08:56:18;;;;;;;;;;;23.70;50.70;;;;;;1585396;73;1928;-66
2023/05/04 08:58:20;;;;;;;;;;;23.60;50.50;;;;;;1589481;73;779;-66
2023/05/04 09:00:22;;;;;;;;;;;23.60;50.60;;;;;;1596538;73;754;-66
2023/05/04 09:02:23;;;;;;;;;;;23.60;50.60;;;;;;1595988;73;1178;-66
2023/05/04 09:04:26;;;;;;;;;;;23.70;50.50;;;;;;1585155;73;754;-66
2023/05/04 09:06:28;;;;;;;;;;;23.70;50.40;;;;;;1574455;73;734;-64
2023/05/04 09:08:30;;;;;;;;;;;23.70;50.40;;;;;;1583037;73;1581;-64
2023/05/04 09:10:32;;;;;;;;;;;23.60;50.20;;;;;;1599141;73;757;-67
2023/05/04 09:12:36;;;;;;;;;;;23.70;50.40;;;;;;1565650;74;1108;-67
2023/05/04 09:14:37;;;;;;;;;;;23.70;50.30;;;;;;1581574;74;1523;-67
2023/05/04 09:16:39;;;;;;;;;;;23.60;50.50;;;;;;1598956;73;1939;-67
2023/05/04 09:18:44;;;;;;;;;;;23.60;50.40;;;;;;1593865;73;766;-67
2023/05/04 09:20:46;;;;;;;;;;;23.70;50.50;;;;;;1594831;73;780;-66
2023/05/04 09:22:50;;;;;;;;;;;23.70;50.50;;;;;;1598527;73;1194;-67
2023/05/04 09:24:52;;;;;;;;;;;23.70;50.50;;;;;;1597294;74;1751;-67
2023/05/04 09:26:54;;;;;;;;;;;23.70;50.50;;;;;;1588295;73;813;-67
2023/05/04 09:28:56;;;;;;;;;;;23.80;50.50;;;;;;1594535;73;796;-67
2023/05/04 09:30:59;;;;;;;;;;;23.80;50.40;;;;;;1603065;73;834;-66
2023/05/04 09:33:01;;;;;;;;;;;23.90;50.30;;;;;;1598755;73;1142;-67
2023/05/04 09:35:04;;;;;;;;;;;23.90;50.20;;;;;;1594670;73;785;-66
2023/05/04 09:37:06;;;;;;;;;;;23.90;50.20;;;;;;1594850;73;1925;-66
2023/05/04 09:39:11;;;;;;;;;;;23.90;50.20;;;;;;1592877;74;677;-66
2023/05/04 09:41:13;;;;;;;;;;;23.90;50.10;;;;;;1593529;73;657;-66
2023/05/04 09:43:15;;;;;;;;;;;23.90;50.10;;;;;;1595980;73;1210;-67
2023/05/04 09:45:17;;;;;;;;;;;23.90;50.10;;;;;;1598238;74;895;-66
2023/05/04 09:47:18;;;;;;;;;;;23.90;50.00;;;;;;1599649;73;765;-67
2023/05/04 09:49:34;;;;;;;;;;;24.00;50.00;;;;;;1588721;73;623;-66
2023/05/04 09:51:36;;;;;;;;;;;23.90;50.00;;;;;;1580565;73;1546;-64
2023/05/04 09:53:38;;;;;;;;;;;23.90;50.00;;;;;;1577669;73;1168;-67
2023/05/04 09:55:40;;;;;;;;;;;23.90;50.00;;;;;;1583372;74;684;-66
2023/05/04 09:57:42;;;;;;;;;;;23.90;50.00;;;;;;1597978;73;1921;-66
2023/05/04 09:59:44;;;;;;;;;;;23.90;50.00;;;;;;1584047;73;766;-67
2023/05/04 10:01:46;;;;;;;;;;;23.90;50.00;;;;;;1594393;73;747;-66
2023/05/04 10:03:48;;;;;;;;;;;23.90;50.10;;;;;;1588440;73;1396;-67
2023/05/04 10:05:50;;;;;;;;;;;23.90;50.00;;;;;;1595744;73;782;-66
2023/05/04 10:07:52;;;;;;;;;;;23.90;50.00;;;;;;1583830;73;738;-67
2023/05/04 10:09:54;;;;;;;;;;;23.90;50.00;;;;;;1590807;73;786;-68
2023/05/04 10:11:58;;;;;;;;;;;23.80;46.50;;;;;;1591322;73;816;-65
2023/05/04 10:14:00;;;;;;;;;;;23.60;46.50;;;;;;1609476;71;2079;-67
2023/05/04 10:16:18;;;;;;;;;;;23.40;43.10;;;;;;1621717;71;767;-67
2023/05/04 10:18:24;;;;;;;;;;;23.10;43.40;;;;;;1622047;71;762;-67
2023/05/04 10:20:35;;;;;;;;;;;23.00;43.40;;;;;;1619269;72;766;-67
2023/05/04 10:22:53;;;;;;;;;;;22.90;41.70;;;;;;1625299;71;1281;-68
2023/05/04 10:25:00;;;;;;;;;;;22.80;41.00;;;;;;1621337;71;1502;-68
2023/05/04 10:27:03;;;;;;;;;;;22.70;43.00;;;;;;1613093;73;736;-66
2023/05/04 10:29:07;;;;;;;;;;;22.70;44.60;;;;;;1618367;71;763;-67
2023/05/04 10:31:09;;;;;;;;;;;22.60;41.90;;;;;;1624231;71;747;-66
2023/05/04 10:33:11;;;;;;;;;;;22.60;40.40;;;;;;1640192;71;1162;-66
2023/05/04 10:35:15;;;;;;;;;;;22.50;40.90;;;;;;1620557;71;771;-66
2023/05/04 10:37:17;;;;;;;;;;;22.40;41.10;;;;;;1620626;71;1918;-66
2023/05/04 10:39:20;;;;;;;;;;;22.40;42.60;;;;;;1634161;71;753;-66
2023/05/04 10:41:22;;;;;;;;;;;22.40;41.90;;;;;;1621624;71;590;-67
2023/05/04 10:43:24;;;;;;;;;;;22.20;40.80;;;;;;1621684;71;1219;-65
2023/05/04 10:45:37;;;;;;;;;;;22.20;41.40;;;;;;1616831;71;786;-67
2023/05/04 10:47:43;;;;;;;;;;;22.20;40.40;;;;;;1585067;71;1016;-66
2023/05/04 10:49:42;;;;;;;;;;;22.20;40.40;;;;;;1632262;71;794;-65
2023/05/04 10:51:45;;;;;;;;;;;22.10;39.40;;;;;;1622624;71;746;-65
2023/05/04 10:53:47;;;;;;;;;;;22.10;41.70;;;;;;1624464;71;1113;-67
2023/05/04 10:55:49;;;;;;;;;;;22.10;42.20;;;;;;1615572;72;737;-66
2023/05/04 10:57:52;;;;;;;;;;;22.10;39.10;;;;;;1623880;72;1937;-66
2023/05/04 10:59:55;;;;;;;;;;;22.10;40.20;;;;;;1628487;71;1416;-66
2023/05/04 11:01:57;;;;;;;;;;;22.00;39.70;;;;;;1619516;71;780;-66
2023/05/04 11:03:59;;;;;;;;;;;22.00;41.60;;;;;;1632097;71;1215;-64
2023/05/04 11:06:01;;;;;;;;;;;22.00;39.90;;;;;;1624928;71;763;-66
2023/05/04 11:08:04;;;;;;;;;;;22.00;41.30;;;;;;1618145;71;770;-66
2023/05/04 11:10:08;;;;;;;;;;;22.00;40.60;;;;;;1616193;71;1135;-68
2023/05/04 11:12:10;;;;;;;;;;;21.90;38.50;;;;;;1626367;71;763;-66
2023/05/04 11:14:13;;;;;;;;;;;21.80;39.70;;;;;;1587693;73;1214;-67
2023/05/04 11:16:24;;;;;;;;;;;21.80;39.20;;;;;;1624232;71;1594;-67
2023/05/04 11:18:29;;;;;;;;;;;21.80;39.70;;;;;;1626269;72;1936;-65
2023/05/04 11:20:31;;;;;;;;;;;21.70;40.00;;;;;;1627967;71;749;-67
2023/05/04 11:22:33;;;;;;;;;;;21.80;40.80;;;;;;1637304;71;1157;-64
2023/05/04 11:24:44;;;;;;;;;;;21.90;40.50;;;;;;1626046;71;747;-65
2023/05/04 11:26:47;;;;;;;;;;;21.80;38.90;;;;;;1624090;71;781;-65
2023/05/04 11:28:49;;;;;;;;;;;21.70;40.30;;;;;;1618178;71;763;-65
2023/05/04 11:30:52;;;;;;;;;;;21.70;38.30;;;;;;1624428;71;661;-66
2023/05/04 11:32:56;;;;;;;;;;;21.60;39.40;;;;;;1625758;71;1161;-66
2023/05/04 11:34:57;;;;;;;;;;;21.70;40.60;;;;;;1623303;71;772;-66
2023/05/04 11:36:59;;;;;;;;;;;21.70;39.30;;;;;;1624790;71;1922;-66
2023/05/04 11:39:04;;;;;;;;;;;21.70;38.40;;;;;;1622822;71;752;-66
2023/05/04 11:41:05;;;;;;;;;;;21.60;40.00;;;;;;1621229;71;1124;-68
2023/05/04 11:43:08;;;;;;;;;;;21.60;38.80;;;;;;1638559;71;1225;-66
2023/05/04 11:45:14;;;;;;;;;;;21.60;40.50;;;;;;1629928;71;770;-66
2023/05/04 11:47:16;;;;;;;;;;;21.60;40.30;;;;;;1618050;71;778;-66
2023/05/04 11:49:18;;;;;;;;;;;21.60;38.90;;;;;;1625105;71;762;-66
2023/05/04 11:51:22;;;;;;;;;;;21.60;38.70;;;;;;1620054;71;777;-66
2023/05/04 11:53:24;;;;;;;;;;;21.50;40.40;;;;;;1611169;73;1169;-68
2023/05/04 11:55:26;;;;;;;;;;;21.50;38.60;;;;;;1615964;73;799;-66
2023/05/04 11:57:30;;;;;;;;;;;21.50;38.90;;;;;;1623799;71;1933;-68
2023/05/04 11:59:32;;;;;;;;;;;21.50;39.40;;;;;;1617390;71;828;-67
2023/05/04 12:01:34;;;;;;;;;;;21.50;39.50;;;;;;1628278;71;691;-67
2023/05/04 12:03:38;;;;;;;;;;;21.50;38.60;;;;;;1620493;71;1158;-67
2023/05/04 12:05:41;;;;;;;;;;;21.50;37.10;;;;;;1628468;71;1112;-65
2023/05/04 12:07:43;;;;;;;;;;;21.50;39.60;;;;;;1611135;71;1019;-69
2023/05/04 12:09:45;;;;;;;;;;;21.50;38.90;;;;;;1626530;71;784;-67